createdAt,value
2023-05-14T00:02:50.992Z,4.85
2023-05-14T00:05:56.111Z,4.38
2023-05-14T00:09:01.446Z,3.92
2023-05-14T00:12:09.617Z,3.85
2023-05-14T00:15:15.049Z,4.10
2023-05-14T00:18:21.158Z,4.32
2023-05-14T00:21:28.590Z,3.90
2023-05-14T00:24:33.638Z,3.85
2023-05-14T00:27:43.755Z,4.65
2023-05-14T00:30:48.763Z,4.30
2023-05-14T00:33:54.105Z,4.25
2023-05-14T00:36:59.063Z,4.30
2023-05-14T00:40:07.038Z,4.22
2023-05-14T00:43:14.661Z,4.43
2023-05-14T00:46:20.009Z,4.00
2023-05-14T00:49:27.818Z,4.78
2023-05-14T00:52:33.357Z,4.47
2023-05-14T00:55:38.468Z,4.57
2023-05-14T00:58:46.481Z,4.38
2023-05-14T01:01:51.482Z,4.30
2023-05-14T01:04:57.102Z,4.47
2023-05-14T01:08:06.616Z,4.20
2023-05-14T01:11:14.578Z,4.00
2023-05-14T01:14:24.348Z,4.80
2023-05-14T01:17:31.488Z,4.20
2023-05-14T01:20:37.059Z,4.25
2023-05-14T01:23:45.138Z,4.70
2023-05-14T01:26:52.625Z,4.18
2023-05-14T01:30:02.165Z,4.05
2023-05-14T01:33:09.362Z,3.97
2023-05-14T01:36:14.800Z,4.28
2023-05-14T01:39:22.628Z,4.28
2023-05-14T01:42:28.230Z,5.10
2023-05-14T01:45:33.708Z,4.35
2023-05-14T01:48:39.092Z,4.93
2023-05-14T01:51:44.068Z,4.05
2023-05-14T01:54:55.224Z,4.43
2023-05-14T01:58:01.756Z,4.35
2023-05-14T02:01:09.463Z,4.40
2023-05-14T02:04:14.546Z,4.60
2023-05-14T02:07:20.023Z,4.78
2023-05-14T02:10:30.120Z,5.03
2023-05-14T02:13:35.596Z,5.07
2023-05-14T02:16:43.446Z,5.10
2023-05-14T02:19:51.217Z,5.05
2023-05-14T02:22:57.537Z,5.10
2023-05-14T02:26:05.774Z,5.93
2023-05-14T02:29:11.785Z,5.32
2023-05-14T02:32:17.129Z,5.60
2023-05-14T02:35:22.126Z,5.80
2023-05-14T02:38:27.582Z,5.75
2023-05-14T02:41:35.453Z,6.13
2023-05-14T02:44:40.836Z,5.93
2023-05-14T02:47:46.221Z,5.57
2023-05-14T02:50:51.695Z,6.22
2023-05-14T02:53:56.672Z,6.00
2023-05-14T02:57:04.685Z,5.53
2023-05-14T03:00:10.498Z,5.22
2023-05-14T03:03:16.221Z,5.57
2023-05-14T03:06:21.378Z,6.00
2023-05-14T03:09:28.029Z,6.10
2023-05-14T03:12:36.813Z,5.95
2023-05-14T03:15:42.151Z,5.55
2023-05-14T03:18:47.115Z,6.20
2023-05-14T03:21:54.948Z,5.72
2023-05-14T03:25:04.013Z,6.30
2023-05-14T03:28:12.897Z,5.72
2023-05-14T03:31:18.067Z,6.30
2023-05-14T03:34:23.491Z,6.30
2023-05-14T03:37:29.980Z,5.97
2023-05-14T03:40:36.845Z,5.45
2023-05-14T03:43:44.466Z,6.00
2023-05-14T03:46:49.844Z,5.70
2023-05-14T03:49:54.824Z,5.47
2023-05-14T03:53:00.203Z,5.40
2023-05-14T03:56:05.188Z,5.82
2023-05-14T03:59:13.126Z,5.45
2023-05-14T04:02:18.312Z,6.13
2023-05-14T04:05:23.882Z,6.60
2023-05-14T04:08:28.998Z,5.72
2023-05-14T04:11:34.577Z,6.15
2023-05-14T04:14:42.411Z,6.07
2023-05-14T04:17:55.940Z,5.45
2023-05-14T04:21:00.906Z,5.32
2023-05-14T04:24:08.550Z,6.45
2023-05-14T04:27:13.494Z,5.72
2023-05-14T04:30:21.769Z,5.78
2023-05-14T04:33:28.210Z,5.75
2023-05-14T04:36:33.553Z,5.93
2023-05-14T04:39:39.930Z,5.60
2023-05-14T04:42:45.558Z,6.00
2023-05-14T04:45:54.676Z,6.05
2023-05-14T04:49:00.133Z,6.10
2023-05-14T04:52:05.185Z,5.93
2023-05-14T04:55:14.342Z,6.35
2023-05-14T04:58:19.351Z,6.10
2023-05-14T05:01:27.380Z,7.05
2023-05-14T05:04:32.536Z,6.68
2023-05-14T05:07:37.848Z,6.65
2023-05-14T05:10:42.844Z,6.80
2023-05-14T05:13:48.267Z,6.82
2023-05-14T05:16:56.122Z,6.93
2023-05-14T05:20:01.919Z,7.63
2023-05-14T05:23:07.346Z,7.03
2023-05-14T05:26:12.821Z,7.35
2023-05-14T05:29:17.876Z,7.13
2023-05-14T05:32:26.025Z,7.28
2023-05-14T05:35:31.051Z,7.43
2023-05-14T05:38:36.385Z,7.40
2023-05-14T05:41:42.555Z,7.60
2023-05-14T05:44:48.185Z,6.82
2023-05-14T05:47:56.091Z,7.55
2023-05-14T05:51:01.525Z,7.13
2023-05-14T05:54:06.922Z,7.85
2023-05-14T05:57:12.397Z,8.80
2023-05-14T06:00:17.917Z,8.25
2023-05-14T06:03:26.155Z,8.43
2023-05-14T06:06:33.014Z,8.70
2023-05-14T06:09:38.898Z,7.75
2023-05-14T06:12:44.101Z,7.70
2023-05-14T06:15:49.419Z,7.22
2023-05-14T06:18:57.129Z,7.13
2023-05-14T06:22:04.904Z,7.05
2023-05-14T06:25:10.663Z,6.68
2023-05-14T06:28:16.016Z,7.07
2023-05-14T06:31:21.316Z,6.72
2023-05-14T06:34:33.377Z,6.85
2023-05-14T06:37:38.787Z,6.68
2023-05-14T06:40:47.460Z,7.15
2023-05-14T06:43:55.640Z,7.10
2023-05-14T06:47:01.502Z,6.50
2023-05-14T06:50:10.920Z,7.00
2023-05-14T06:53:16.491Z,7.25
2023-05-14T06:56:22.294Z,6.40
2023-05-14T06:59:28.140Z,6.68
2023-05-14T07:02:33.405Z,6.13
2023-05-14T07:05:46.225Z,5.00
2023-05-14T07:08:51.425Z,5.10
2023-05-14T07:11:58.125Z,5.10
2023-05-14T07:15:03.194Z,4.85
2023-05-14T07:18:09.169Z,5.07
2023-05-14T07:21:18.934Z,4.90
2023-05-14T07:24:24.457Z,4.63
2023-05-14T07:27:33.837Z,4.18
2023-05-14T07:30:41.812Z,4.20
2023-05-14T07:33:49.309Z,4.57
2023-05-14T07:36:58.288Z,4.40
2023-05-14T07:40:06.559Z,4.45
2023-05-14T07:43:16.746Z,4.13
2023-05-14T07:46:24.418Z,4.70
2023-05-14T07:49:31.662Z,5.15
2023-05-14T07:52:42.070Z,3.97
2023-05-14T07:55:49.199Z,3.90
2023-05-14T07:58:56.094Z,3.65
2023-05-14T08:02:11.300Z,3.97
2023-05-14T08:05:18.325Z,3.58
2023-05-14T08:08:27.624Z,3.50
2023-05-14T08:11:34.548Z,4.20
2023-05-14T08:14:41.806Z,3.83
2023-05-14T08:17:50.118Z,4.03
2023-05-14T08:20:56.318Z,4.25
2023-05-14T08:24:07.298Z,5.70
2023-05-14T08:27:13.847Z,5.35
2023-05-14T08:30:23.261Z,6.53
2023-05-14T08:33:32.925Z,6.47
2023-05-14T08:36:40.432Z,6.18
2023-05-14T08:39:48.874Z,5.97
2023-05-14T08:42:56.222Z,6.05
2023-05-14T08:46:08.607Z,6.18
2023-05-14T08:49:29.377Z,6.40
2023-05-14T08:52:35.547Z,6.55
2023-05-14T08:55:43.741Z,7.22
2023-05-14T08:58:50.002Z,6.30
2023-05-14T09:01:55.935Z,6.95
2023-05-14T09:05:02.485Z,6.55
2023-05-14T09:08:11.867Z,6.05
2023-05-14T09:11:20.319Z,6.70
2023-05-14T09:14:28.089Z,6.80
2023-05-14T09:17:37.814Z,6.65
2023-05-14T09:20:43.010Z,6.30
2023-05-14T09:23:49.973Z,5.60
2023-05-14T09:26:59.276Z,6.10
2023-05-14T09:30:10.530Z,6.20
2023-05-14T09:33:16.152Z,6.10
2023-05-14T09:36:23.510Z,6.18
2023-05-14T09:39:30.816Z,6.45
2023-05-14T09:42:41.501Z,7.25
2023-05-14T09:45:46.955Z,6.65
2023-05-14T09:48:53.666Z,6.53
2023-05-14T09:51:58.685Z,6.43
2023-05-14T09:55:04.726Z,6.32
2023-05-14T09:58:14.832Z,6.57
2023-05-14T10:01:23.675Z,7.07
2023-05-14T10:04:29.219Z,6.78
2023-05-14T10:07:37.444Z,6.30
2023-05-14T10:10:44.443Z,6.30
2023-05-14T10:13:59.331Z,6.10
2023-05-14T10:17:22.511Z,6.38
2023-05-14T10:20:30.698Z,6.20
2023-05-14T10:23:38.317Z,6.40
2023-05-14T10:26:44.452Z,6.72
2023-05-14T10:29:57.067Z,7.63
2023-05-14T10:33:10.061Z,6.80
2023-05-14T10:36:15.251Z,6.82
2023-05-14T10:39:30.287Z,6.05
2023-05-14T10:42:37.867Z,6.65
2023-05-14T10:45:47.084Z,6.03
2023-05-14T10:48:52.786Z,5.72
2023-05-14T10:51:58.439Z,5.35
2023-05-14T10:55:06.039Z,5.10
2023-05-14T10:58:15.204Z,5.72
2023-05-14T11:01:28.134Z,5.53
2023-05-14T11:04:34.762Z,5.53
2023-05-14T11:07:40.571Z,5.53
2023-05-14T11:10:47.384Z,4.80
2023-05-14T11:13:53.295Z,5.68
2023-05-14T11:17:01.700Z,5.13
2023-05-14T11:20:08.245Z,5.38
2023-05-14T11:23:14.185Z,4.97
2023-05-14T11:26:21.948Z,5.13
2023-05-14T11:29:27.809Z,4.50
2023-05-14T11:32:35.896Z,5.15
2023-05-14T11:35:43.203Z,4.45
2023-05-14T11:38:54.785Z,3.78
2023-05-14T11:42:01.213Z,4.07
2023-05-14T11:45:08.727Z,4.15
2023-05-14T11:48:26.668Z,3.97
2023-05-14T11:51:33.242Z,3.40
2023-05-14T11:54:40.066Z,3.55
2023-05-14T11:57:49.102Z,4.10
2023-05-14T12:00:55.004Z,3.80
2023-05-14T12:04:03.846Z,4.30
2023-05-14T12:07:15.725Z,4.50
2023-05-14T12:10:24.054Z,4.22
2023-05-14T12:13:30.165Z,4.60
2023-05-14T12:16:38.230Z,4.15
2023-05-14T12:19:52.008Z,4.53
2023-05-14T12:22:57.562Z,4.82
2023-05-14T12:26:08.598Z,4.65
2023-05-14T12:29:16.011Z,5.65
2023-05-14T12:32:30.872Z,5.18
2023-05-14T12:35:39.965Z,5.20
2023-05-14T12:38:47.254Z,4.95
2023-05-14T12:41:53.644Z,5.25
2023-05-14T12:45:04.146Z,4.88
2023-05-14T12:48:11.328Z,4.55
2023-05-14T12:51:20.001Z,5.13
2023-05-14T12:54:27.769Z,4.55
2023-05-14T12:57:35.857Z,4.18
2023-05-14T13:00:41.499Z,4.75
2023-05-14T13:03:47.297Z,4.90
2023-05-14T13:06:55.526Z,5.28
2023-05-14T13:10:01.567Z,5.10
2023-05-14T13:13:07.124Z,5.38
2023-05-14T13:16:17.395Z,5.10
2023-05-14T13:19:26.071Z,5.05
2023-05-14T13:22:34.446Z,4.40
2023-05-14T13:25:42.731Z,4.55
2023-05-14T13:28:48.987Z,4.75
2023-05-14T13:31:57.021Z,4.10
2023-05-14T13:35:03.677Z,3.95
2023-05-14T13:38:13.941Z,3.83
2023-05-14T13:41:19.959Z,3.47
2023-05-14T13:44:25.178Z,3.47
2023-05-14T13:47:32.499Z,3.20
2023-05-14T13:50:41.748Z,3.60
2023-05-14T13:53:50.652Z,3.47
2023-05-14T13:57:03.568Z,2.97
2023-05-14T14:00:18.517Z,3.80
2023-05-14T14:03:33.256Z,3.33
2023-05-14T14:06:39.414Z,3.40
2023-05-14T14:09:47.059Z,3.35
2023-05-14T14:12:52.741Z,3.60
2023-05-14T14:15:59.394Z,3.75
2023-05-14T14:19:05.039Z,3.90
2023-05-14T14:22:10.662Z,3.55
2023-05-14T14:25:18.893Z,3.60
2023-05-14T14:28:26.227Z,3.22
2023-05-14T14:31:33.032Z,3.10
2023-05-14T14:34:38.116Z,3.08
2023-05-14T14:37:53.368Z,3.22
2023-05-14T14:41:03.233Z,2.80
2023-05-14T14:44:10.125Z,3.20
2023-05-14T14:47:15.849Z,3.05
2023-05-14T14:50:21.560Z,3.15
2023-05-14T14:53:28.297Z,3.00
2023-05-14T14:56:38.310Z,3.65
2023-05-14T14:59:43.428Z,3.08
2023-05-14T15:02:50.492Z,2.97
2023-05-14T15:05:58.548Z,3.10
2023-05-14T15:09:04.148Z,3.00
2023-05-14T15:12:12.783Z,3.65
2023-05-14T15:15:18.287Z,3.78
2023-05-14T15:18:23.299Z,3.80
2023-05-14T15:21:32.550Z,3.70
2023-05-14T15:24:37.743Z,3.78
2023-05-14T15:27:59.632Z,3.53
2023-05-14T15:31:08.640Z,3.90
2023-05-14T15:34:14.082Z,3.55
2023-05-14T15:37:19.132Z,3.58
2023-05-14T15:40:25.655Z,3.95
2023-05-14T15:43:35.773Z,3.88
2023-05-14T15:46:43.568Z,3.97
2023-05-14T15:49:51.185Z,3.83
2023-05-14T15:52:57.013Z,4.18
2023-05-14T15:56:04.172Z,4.13
2023-05-14T15:59:15.362Z,4.32
2023-05-14T16:02:21.756Z,3.53
2023-05-14T16:05:28.951Z,4.05
2023-05-14T16:08:34.206Z,4.05
2023-05-14T16:11:39.916Z,4.00
2023-05-14T16:14:50.563Z,3.78
2023-05-14T16:17:56.098Z,4.25
2023-05-14T16:21:01.962Z,4.25
2023-05-14T16:24:07.603Z,6.20
2023-05-14T16:27:12.788Z,3.60
2023-05-14T16:30:20.889Z,4.35
2023-05-14T16:33:25.972Z,4.18
2023-05-14T16:36:47.599Z,3.50
2023-05-14T16:39:52.688Z,4.00
2023-05-14T16:42:59.753Z,3.90
2023-05-14T16:46:09.768Z,3.80
2023-05-14T16:49:15.198Z,3.90
2023-05-14T16:52:20.237Z,3.72
2023-05-14T16:55:26.170Z,4.00
2023-05-14T16:58:31.333Z,3.88
2023-05-14T17:01:44.479Z,3.80
2023-05-14T17:04:49.753Z,4.20
2023-05-14T17:07:57.058Z,4.25
2023-05-14T17:11:05.444Z,3.78
2023-05-14T17:14:10.687Z,4.43
2023-05-14T17:17:21.980Z,4.25
2023-05-14T17:20:28.962Z,4.50
2023-05-14T17:23:36.375Z,6.50
2023-05-14T17:26:42.244Z,5.35
2023-05-14T17:29:49.512Z,4.65
2023-05-14T17:32:57.897Z,4.85
2023-05-14T17:36:04.402Z,4.80
2023-05-14T17:39:10.342Z,4.97
2023-05-14T17:42:15.384Z,5.13
2023-05-14T17:45:23.167Z,4.95
2023-05-14T17:48:36.160Z,5.03
2023-05-14T17:51:42.155Z,5.15
2023-05-14T17:54:51.037Z,5.30
2023-05-14T17:57:56.451Z,4.70
2023-05-14T18:01:03.967Z,5.15
2023-05-14T18:04:12.661Z,5.55
2023-05-14T18:07:19.450Z,5.28
2023-05-14T18:10:29.867Z,5.10
2023-05-14T18:13:38.805Z,5.00
2023-05-14T18:16:46.818Z,4.93
2023-05-14T18:19:57.111Z,4.80
2023-05-14T18:23:04.985Z,4.50
2023-05-14T18:26:12.312Z,5.13
2023-05-14T18:29:20.259Z,5.13
2023-05-14T18:32:25.322Z,5.43
2023-05-14T18:35:36.805Z,6.45
2023-05-14T18:38:41.831Z,6.78
2023-05-14T18:41:47.703Z,5.95
2023-05-14T18:44:52.754Z,5.22
2023-05-14T18:48:01.443Z,5.05
2023-05-14T18:51:11.526Z,5.43
2023-05-14T18:54:18.055Z,5.10
2023-05-14T18:57:23.381Z,5.45
2023-05-14T19:00:28.740Z,4.65
2023-05-14T19:03:34.141Z,5.30
2023-05-14T19:06:43.898Z,4.65
2023-05-14T19:09:49.062Z,4.93
2023-05-14T19:12:55.289Z,5.85
2023-05-14T19:16:03.161Z,6.20
2023-05-14T19:19:08.757Z,5.90
2023-05-14T19:22:16.634Z,5.35
2023-05-14T19:25:22.076Z,4.90
2023-05-14T19:28:29.284Z,5.28
2023-05-14T19:31:34.929Z,5.60
2023-05-14T19:34:41.293Z,5.63
2023-05-14T19:37:50.943Z,5.43
2023-05-14T19:40:59.768Z,5.18
2023-05-14T19:44:06.667Z,5.75
2023-05-14T19:47:11.657Z,6.90
2023-05-14T19:50:17.034Z,5.15
2023-05-14T19:53:29.779Z,5.85
2023-05-14T19:56:38.892Z,5.57
2023-05-14T19:59:44.660Z,5.53
2023-05-14T20:02:50.057Z,5.80
2023-05-14T20:05:55.310Z,6.57
2023-05-14T20:09:04.213Z,6.45
2023-05-14T20:12:13.161Z,6.53
2023-05-14T20:15:18.701Z,6.45
2023-05-14T20:18:24.986Z,6.40
2023-05-14T20:21:30.981Z,6.35
2023-05-14T20:24:38.828Z,6.80
2023-05-14T20:27:44.251Z,5.65
2023-05-14T20:30:52.510Z,6.22
2023-05-14T20:33:58.031Z,6.40
2023-05-14T20:37:05.040Z,7.13
2023-05-14T20:40:15.439Z,6.90
2023-05-14T20:43:21.614Z,6.45
2023-05-14T20:46:29.376Z,6.93
2023-05-14T20:49:34.455Z,5.82
2023-05-14T20:52:39.804Z,6.65
2023-05-14T20:55:47.706Z,6.88
2023-05-14T20:58:53.136Z,6.88
2023-05-14T21:01:58.476Z,6.78
2023-05-14T21:05:03.934Z,6.18
2023-05-14T21:08:09.310Z,6.32
2023-05-14T21:11:17.785Z,6.40
2023-05-14T21:14:23.666Z,6.10
2023-05-14T21:17:29.142Z,6.65
2023-05-14T21:20:34.215Z,6.35
2023-05-14T21:23:39.722Z,6.68
2023-05-14T21:26:47.415Z,6.97
2023-05-14T21:29:56.146Z,6.32
2023-05-14T21:33:03.841Z,6.60
2023-05-14T21:36:10.161Z,7.28
2023-05-14T21:39:15.256Z,6.97
2023-05-14T21:42:24.452Z,7.25
2023-05-14T21:45:29.713Z,7.50
2023-05-14T21:48:35.263Z,7.80
2023-05-14T21:51:40.469Z,6.90
2023-05-14T21:54:46.144Z,7.85
2023-05-14T21:58:00.288Z,8.27
2023-05-14T22:01:07.641Z,7.65
2023-05-14T22:04:12.941Z,7.57
2023-05-14T22:07:18.494Z,8.10
2023-05-14T22:10:24.571Z,8.45
2023-05-14T22:13:32.601Z,7.55
2023-05-14T22:16:37.686Z,7.75
2023-05-14T22:19:43.173Z,7.13
2023-05-14T22:22:49.242Z,7.22
2023-05-14T22:25:56.209Z,7.63
2023-05-14T22:29:05.807Z,6.60
2023-05-14T22:32:11.309Z,6.93
2023-05-14T22:35:16.288Z,6.80
2023-05-14T22:38:22.567Z,7.32
2023-05-14T22:41:28.286Z,7.15
2023-05-14T22:44:37.165Z,7.13
2023-05-14T22:47:42.195Z,7.90
2023-05-14T22:50:47.614Z,7.00
2023-05-14T22:53:52.898Z,7.38
2023-05-14T22:56:58.249Z,7.07
2023-05-14T23:00:08.108Z,7.18
2023-05-14T23:03:13.506Z,7.25
2023-05-14T23:06:20.652Z,6.60
2023-05-14T23:09:27.286Z,7.88
2023-05-14T23:12:32.306Z,8.10
2023-05-14T23:15:40.284Z,7.57
2023-05-14T23:18:45.858Z,7.75
2023-05-14T23:21:51.337Z,7.65
2023-05-14T23:24:56.314Z,8.43
2023-05-14T23:28:02.046Z,7.38
2023-05-14T23:31:09.675Z,7.43
2023-05-14T23:34:15.107Z,7.20
2023-05-14T23:37:20.561Z,8.05
2023-05-14T23:40:27.057Z,7.43
2023-05-14T23:43:32.535Z,8.13
2023-05-14T23:46:41.844Z,7.82
2023-05-14T23:49:47.877Z,7.35
2023-05-14T23:52:54.049Z,7.22
2023-05-14T23:55:59.022Z,7.53
2023-05-14T23:59:07.166Z,7.18
